createdAt,value
2023-05-15T00:01:03.203Z,95114.78
2023-05-15T00:03:29.924Z,95113.81
2023-05-15T00:05:57.273Z,95117.81
2023-05-15T00:08:23.996Z,95115.97
2023-05-15T00:11:01.015Z,95115.44
2023-05-15T00:13:28.552Z,95108.28
2023-05-15T00:15:55.138Z,95108.56
2023-05-15T00:18:21.867Z,95114.06
2023-05-15T00:20:48.418Z,95107.97
2023-05-15T00:23:19.875Z,95099.28
2023-05-15T00:25:46.565Z,95106.69
2023-05-15T00:28:13.213Z,95109.88
2023-05-15T00:30:40.039Z,95103.03
2023-05-15T00:33:07.913Z,95108.06
2023-05-15T00:35:37.169Z,95103.84
2023-05-15T00:38:03.844Z,95109.28
2023-05-15T00:40:32.114Z,95110.84
2023-05-15T00:43:00.790Z,95100.84
2023-05-15T00:45:28.826Z,95099.28
2023-05-15T00:47:57.827Z,95104.31
2023-05-15T00:50:25.020Z,95106.38
2023-05-15T00:52:51.690Z,95095.84
2023-05-15T00:55:18.568Z,95088.97
2023-05-15T00:57:48.043Z,95104.84
2023-05-15T01:00:17.116Z,95089.72
2023-05-15T01:02:44.510Z,95095.53
2023-05-15T01:05:11.364Z,95094.50
2023-05-15T01:07:49.630Z,95095.88
2023-05-15T01:10:18.212Z,95092.16
2023-05-15T01:12:47.591Z,95088.69
2023-05-15T01:15:14.409Z,95093.69
2023-05-15T01:17:41.017Z,95095.09
2023-05-15T01:20:10.808Z,95093.22
2023-05-15T01:22:53.412Z,95094.81
2023-05-15T01:25:48.918Z,95090.78
2023-05-15T01:28:22.583Z,95088.44
2023-05-15T01:30:50.783Z,95088.47
2023-05-15T01:33:29.872Z,95091.06
2023-05-15T01:36:24.694Z,95088.75
2023-05-15T01:38:55.897Z,95099.81
2023-05-15T01:41:53.872Z,95097.16
2023-05-15T01:44:31.799Z,95099.75
2023-05-15T01:47:01.991Z,95098.22
2023-05-15T01:49:31.026Z,95099.81
2023-05-15T01:52:05.270Z,95088.97
2023-05-15T01:54:33.761Z,95089.78
2023-05-15T01:57:00.734Z,95089.28
2023-05-15T01:59:29.191Z,95086.34
2023-05-15T02:01:57.835Z,95089.28
2023-05-15T02:04:25.922Z,95094.31
2023-05-15T02:06:53.676Z,95089.50
2023-05-15T02:09:21.308Z,95084.22
2023-05-15T02:11:48.753Z,95082.09
2023-05-15T02:14:17.559Z,95095.78
2023-05-15T02:16:44.470Z,95089.47
2023-05-15T02:19:11.107Z,95083.66
2023-05-15T02:21:37.822Z,95082.84
2023-05-15T02:24:04.514Z,95089.75
2023-05-15T02:26:39.791Z,95087.91
2023-05-15T02:29:37.005Z,95086.06
2023-05-15T02:32:16.882Z,95079.19
2023-05-15T02:35:00.318Z,95087.91
2023-05-15T02:37:35.185Z,95076.53
2023-05-15T02:40:07.177Z,95076.53
2023-05-15T02:42:35.087Z,95078.59
2023-05-15T02:45:03.121Z,95069.63
2023-05-15T02:47:30.885Z,95071.44
2023-05-15T02:49:57.737Z,95080.69
2023-05-15T02:52:25.158Z,95059.56
2023-05-15T02:54:51.981Z,95080.47
2023-05-15T02:57:18.660Z,95072.03
2023-05-15T02:59:45.722Z,95075.47
2023-05-15T03:02:12.324Z,95072.06
2023-05-15T03:04:39.183Z,95069.66
2023-05-15T03:07:05.797Z,95074.41
2023-05-15T03:09:32.361Z,95075.44
2023-05-15T03:11:58.922Z,95077.06
2023-05-15T03:14:25.577Z,95081.81
2023-05-15T03:16:52.216Z,95079.91
2023-05-15T03:19:19.083Z,95070.13
2023-05-15T03:21:45.876Z,95072.81
2023-05-15T03:24:12.485Z,95074.63
2023-05-15T03:26:40.736Z,95066.56
2023-05-15T03:29:07.293Z,95064.53
2023-05-15T03:31:34.214Z,95075.94
2023-05-15T03:34:00.888Z,95064.03
2023-05-15T03:36:27.470Z,95065.88
2023-05-15T03:38:54.182Z,95065.06
2023-05-15T03:41:21.585Z,95068.56
2023-05-15T03:43:48.283Z,95070.94
2023-05-15T03:46:15.756Z,95070.66
2023-05-15T03:48:42.521Z,95073.09
2023-05-15T03:51:09.153Z,95075.16
2023-05-15T03:53:36.030Z,95075.94
2023-05-15T03:56:03.652Z,95074.69
2023-05-15T03:58:32.258Z,95071.78
2023-05-15T04:00:59.005Z,95079.72
2023-05-15T04:03:25.878Z,95076.00
2023-05-15T04:05:52.581Z,95072.03
2023-05-15T04:08:19.343Z,95070.44
2023-05-15T04:10:46.058Z,95071.50
2023-05-15T04:13:12.603Z,95084.47
2023-05-15T04:15:40.822Z,95072.56
2023-05-15T04:18:07.411Z,95070.69
2023-05-15T04:20:34.182Z,95083.19
2023-05-15T04:23:01.031Z,95078.44
2023-05-15T04:25:28.145Z,95077.19
2023-05-15T04:27:56.222Z,95079.91
2023-05-15T04:30:23.004Z,95070.94
2023-05-15T04:32:50.274Z,95089.50
2023-05-15T04:35:17.216Z,95082.38
2023-05-15T04:37:45.951Z,95083.09
2023-05-15T04:40:15.005Z,95085.56
2023-05-15T04:42:42.322Z,95086.88
2023-05-15T04:45:09.507Z,95079.22
2023-05-15T04:47:36.661Z,95079.94
2023-05-15T04:50:03.892Z,95089.25
2023-05-15T04:52:30.540Z,95088.69
2023-05-15T04:54:57.161Z,95096.63
2023-05-15T04:57:24.146Z,95092.38
2023-05-15T04:59:50.832Z,95102.47
2023-05-15T05:02:22.159Z,95092.72
2023-05-15T05:04:48.986Z,95103.81
2023-05-15T05:07:15.893Z,95104.28
2023-05-15T05:09:42.782Z,95104.59
2023-05-15T05:12:10.466Z,95103.25
2023-05-15T05:14:37.321Z,95112.53
2023-05-15T05:17:04.091Z,95118.66
2023-05-15T05:19:31.100Z,95104.59
2023-05-15T05:22:01.492Z,95104.00
2023-05-15T05:24:28.602Z,95108.81
2023-05-15T05:26:58.285Z,95114.38
2023-05-15T05:29:25.438Z,95124.72
2023-05-15T05:31:52.807Z,95123.84
2023-05-15T05:34:20.213Z,95127.06
2023-05-15T05:36:46.798Z,95130.53
2023-05-15T05:39:13.543Z,95120.47
2023-05-15T05:41:40.337Z,95124.97
2023-05-15T05:44:07.021Z,95126.06
2023-05-15T05:46:33.659Z,95128.44
2023-05-15T05:49:00.417Z,95120.19
2023-05-15T05:51:27.168Z,95131.09
2023-05-15T05:53:53.969Z,95133.16
2023-05-15T05:56:21.885Z,95129.19
2023-05-15T05:58:48.681Z,95134.72
2023-05-15T06:01:15.326Z,95136.84
2023-05-15T06:03:43.352Z,95138.97
2023-05-15T06:06:10.185Z,95145.63
2023-05-15T06:08:36.811Z,95138.22
2023-05-15T06:11:03.675Z,95149.31
2023-05-15T06:13:30.298Z,95154.13
2023-05-15T06:15:56.867Z,95146.66
2023-05-15T06:18:23.498Z,95150.06
2023-05-15T06:20:50.344Z,95144.75
2023-05-15T06:23:16.966Z,95142.69
2023-05-15T06:25:43.582Z,95143.78
2023-05-15T06:28:10.192Z,95152.22
2023-05-15T06:30:36.799Z,95151.66
2023-05-15T06:33:03.490Z,95151.44
2023-05-15T06:35:30.128Z,95157.25
2023-05-15T06:37:58.427Z,95162.84
2023-05-15T06:40:25.442Z,95152.72
2023-05-15T06:42:52.230Z,95159.59
2023-05-15T06:45:19.027Z,95158.03
2023-05-15T06:47:45.657Z,95163.34
2023-05-15T06:50:12.369Z,95166.47
2023-05-15T06:52:39.505Z,95162.22
2023-05-15T06:55:06.373Z,95164.88
2023-05-15T06:57:33.855Z,95172.28
2023-05-15T07:00:00.787Z,95171.19
2023-05-15T07:02:27.600Z,95171.44
2023-05-15T07:04:54.275Z,95174.91
2023-05-15T07:07:20.896Z,95172.75
2023-05-15T07:09:48.546Z,95176.44
2023-05-15T07:12:15.851Z,95175.97
2023-05-15T07:14:42.550Z,95168.38
2023-05-15T07:17:09.242Z,95164.47
2023-05-15T07:19:35.933Z,95173.50
2023-05-15T07:22:03.461Z,95172.47
2023-05-15T07:24:30.364Z,95158.09
2023-05-15T07:26:59.197Z,95177.81
2023-05-15T07:29:26.341Z,95176.69
2023-05-15T07:31:53.355Z,95174.31
2023-05-15T07:34:20.124Z,95173.50
2023-05-15T07:36:46.761Z,95174.31
2023-05-15T07:39:14.004Z,95185.66
2023-05-15T07:41:40.717Z,95183.25
2023-05-15T07:44:07.645Z,95179.22
2023-05-15T07:46:35.027Z,95179.69
2023-05-15T07:49:01.941Z,95170.34
2023-05-15T07:51:28.681Z,95178.53
2023-05-15T07:53:55.659Z,95164.09
2023-05-15T07:56:22.380Z,95164.09
2023-05-15T07:58:48.976Z,95169.38
2023-05-15T08:01:16.158Z,95171.47
2023-05-15T08:03:42.951Z,95173.19
2023-05-15T08:06:09.712Z,95171.03
2023-05-15T08:08:36.395Z,95182.50
2023-05-15T08:11:03.003Z,95172.91
2023-05-15T08:13:29.787Z,95163.84
2023-05-15T08:15:56.752Z,95168.97
2023-05-15T08:18:23.543Z,95171.91
2023-05-15T08:20:50.248Z,95171.84
2023-05-15T08:23:16.824Z,95171.84
2023-05-15T08:25:43.532Z,95178.34
2023-05-15T08:28:10.997Z,95182.44
2023-05-15T08:30:37.824Z,95176.81
2023-05-15T08:33:04.581Z,95171.78
2023-05-15T08:35:31.327Z,95178.00
2023-05-15T08:37:58.991Z,95171.47
2023-05-15T08:43:03.456Z,95180.53
2023-05-15T08:45:30.830Z,95179.75
2023-05-15T08:47:59.154Z,95180.75
2023-05-15T08:50:26.552Z,95172.19
2023-05-15T08:52:58.455Z,95156.06
2023-05-15T08:55:25.687Z,95177.00
2023-05-15T08:57:54.604Z,95171.91
2023-05-15T09:00:22.816Z,95160.06
2023-05-15T09:02:49.649Z,95172.25
2023-05-15T09:05:16.494Z,95168.03
2023-05-15T09:07:45.178Z,95169.09
2023-05-15T09:10:13.853Z,95168.53
2023-05-15T09:12:44.703Z,95168.59
2023-05-15T09:15:13.308Z,95173.41
2023-05-15T09:17:41.059Z,95173.91
2023-05-15T09:20:24.162Z,95157.34
2023-05-15T09:22:50.775Z,95161.31
2023-05-15T09:25:42.733Z,95161.41
2023-05-15T09:28:11.263Z,95162.50
2023-05-15T09:30:39.181Z,95161.72
2023-05-15T09:33:05.994Z,95155.75
2023-05-15T09:35:35.307Z,95157.44
2023-05-15T09:38:03.648Z,95158.75
2023-05-15T09:40:31.944Z,95149.34
2023-05-15T09:42:59.203Z,95144.69
2023-05-15T09:45:27.477Z,95145.47
2023-05-15T09:47:54.495Z,95143.53
2023-05-15T09:50:39.730Z,95146.91
2023-05-15T09:53:06.635Z,95141.84
2023-05-15T09:55:35.000Z,95144.00
2023-05-15T09:58:10.062Z,95129.88
2023-05-15T10:00:47.674Z,95145.25
2023-05-15T10:03:17.871Z,95145.97
2023-05-15T10:05:44.737Z,95140.72
2023-05-15T10:08:12.488Z,95143.19
2023-05-15T10:10:39.238Z,95124.31
2023-05-15T10:13:08.329Z,95122.84
2023-05-15T10:15:35.992Z,95117.56
2023-05-15T10:18:05.092Z,95127.53
2023-05-15T10:20:35.723Z,95134.03
2023-05-15T10:23:05.095Z,95115.19
2023-05-15T10:25:37.431Z,95123.34
2023-05-15T10:28:04.139Z,95118.44
2023-05-15T10:30:32.394Z,95121.97
2023-05-15T10:33:01.014Z,95113.25
2023-05-15T10:35:28.699Z,95115.25
2023-05-15T10:37:55.363Z,95113.59
2023-05-15T10:40:23.376Z,95111.91
2023-05-15T10:42:50.673Z,95112.88
2023-05-15T10:45:17.311Z,95108.91
2023-05-15T10:47:45.832Z,95112.91
2023-05-15T10:50:13.657Z,95114.75
2023-05-15T10:52:41.847Z,95116.56
2023-05-15T10:55:17.164Z,95119.22
2023-05-15T10:57:46.825Z,95117.53
2023-05-15T11:00:22.557Z,95132.25
2023-05-15T11:02:51.041Z,95122.06
2023-05-15T11:05:17.740Z,95112.09
2023-05-15T11:07:44.406Z,95109.13
2023-05-15T11:10:29.538Z,95112.94
2023-05-15T11:13:01.396Z,95100.22
2023-05-15T11:15:44.725Z,95103.72
2023-05-15T11:18:11.573Z,95096.22
2023-05-15T11:20:42.184Z,95108.13
2023-05-15T11:23:09.413Z,95095.78
2023-05-15T11:25:37.061Z,95095.19
2023-05-15T11:28:04.927Z,95086.50
2023-05-15T11:30:40.754Z,95077.53
2023-05-15T11:33:11.365Z,95088.25
2023-05-15T11:35:43.214Z,95087.19
2023-05-15T11:38:09.803Z,95084.53
2023-05-15T11:40:55.152Z,95078.50
2023-05-15T11:43:27.157Z,95080.38
2023-05-15T11:46:03.714Z,95094.91
2023-05-15T11:48:35.099Z,95096.88
2023-05-15T11:51:02.645Z,95099.94
2023-05-15T11:53:31.085Z,95104.78
2023-05-15T11:55:57.914Z,95083.53
2023-05-15T11:58:26.113Z,95100.72
2023-05-15T12:00:53.964Z,95107.91
2023-05-15T12:03:36.390Z,95102.56
2023-05-15T12:06:03.737Z,95114.34
2023-05-15T12:08:35.122Z,95118.47
2023-05-15T12:11:03.280Z,95117.34
2023-05-15T12:13:31.999Z,95117.03
2023-05-15T12:15:59.348Z,95124.28
2023-05-15T12:18:26.493Z,95125.63
2023-05-15T12:20:53.922Z,95126.50
2023-05-15T12:23:27.015Z,95123.44
2023-05-15T12:25:58.868Z,95118.91
2023-05-15T12:28:26.926Z,95116.94
2023-05-15T12:30:54.573Z,95119.69
2023-05-15T12:33:21.803Z,95109.63
2023-05-15T12:35:57.444Z,95112.38
2023-05-15T12:38:27.172Z,95105.34
2023-05-15T12:40:54.520Z,95092.13
2023-05-15T12:43:25.223Z,95079.78
2023-05-15T12:45:56.683Z,95083.38
2023-05-15T12:48:24.034Z,95089.81
2023-05-15T12:50:50.698Z,95075.91
2023-05-15T12:53:17.466Z,95084.56
2023-05-15T12:55:46.659Z,95085.78
2023-05-15T12:58:15.476Z,95080.69
2023-05-15T13:00:43.463Z,95089.84
2023-05-15T13:03:12.597Z,95087.50
2023-05-15T13:05:43.096Z,95100.81
2023-05-15T13:08:14.483Z,95097.47
2023-05-15T13:10:41.303Z,95097.97
2023-05-15T13:13:07.971Z,95095.75
2023-05-15T13:15:43.799Z,95096.16
2023-05-15T13:18:12.714Z,95107.00
2023-05-15T13:20:40.649Z,95107.53
2023-05-15T13:23:08.599Z,95113.03
2023-05-15T13:25:36.128Z,95116.22
2023-05-15T13:28:04.790Z,95131.94
2023-05-15T13:30:33.571Z,95140.84
2023-05-15T13:33:01.184Z,95132.53
2023-05-15T13:35:28.455Z,95135.91
2023-05-15T13:37:55.114Z,95140.56
2023-05-15T13:40:21.996Z,95140.75
2023-05-15T13:42:48.793Z,95141.75
2023-05-15T13:45:16.622Z,95137.97
2023-05-15T13:47:44.195Z,95148.75
2023-05-15T13:50:15.864Z,95133.53
2023-05-15T13:52:44.056Z,95142.25
2023-05-15T13:55:11.258Z,95152.13
2023-05-15T13:57:39.166Z,95136.91
2023-05-15T14:00:07.939Z,95144.53
2023-05-15T14:02:34.642Z,95157.16
2023-05-15T14:05:01.395Z,95145.28
2023-05-15T14:07:28.224Z,95144.88
2023-05-15T14:09:54.927Z,95148.88
2023-05-15T14:12:22.316Z,95135.22
2023-05-15T14:14:49.357Z,95137.75
2023-05-15T14:17:17.052Z,95144.94
2023-05-15T14:19:44.258Z,95130.59
2023-05-15T14:22:11.368Z,95136.72
2023-05-15T14:24:38.073Z,95138.63
2023-05-15T14:27:04.994Z,95139.16
2023-05-15T14:29:32.035Z,95143.03
2023-05-15T14:31:58.734Z,95143.16
2023-05-15T14:34:25.464Z,95144.97
2023-05-15T14:36:52.263Z,95140.72
2023-05-15T14:39:19.347Z,95148.84
2023-05-15T14:41:47.658Z,95139.53
2023-05-15T14:44:14.306Z,95128.47
2023-05-15T14:46:42.878Z,95129.69
2023-05-15T14:49:09.611Z,95135.81
2023-05-15T14:51:36.256Z,95125.81
2023-05-15T14:54:04.569Z,95129.13
2023-05-15T14:56:31.546Z,95127.34
2023-05-15T14:58:58.116Z,95129.63
2023-05-15T15:01:24.870Z,95126.59
2023-05-15T15:03:51.616Z,95126.50
2023-05-15T15:06:18.337Z,95122.84
2023-05-15T15:08:44.962Z,95118.81
2023-05-15T15:11:11.605Z,95127.69
2023-05-15T15:13:38.318Z,95134.41
2023-05-15T15:16:05.096Z,95131.31
2023-05-15T15:18:31.879Z,95139.63
2023-05-15T15:20:58.562Z,95135.19
2023-05-15T15:23:25.179Z,95133.03
2023-05-15T15:25:51.739Z,95127.69
2023-05-15T15:28:18.457Z,95135.41
2023-05-15T15:30:45.304Z,95130.25
2023-05-15T15:33:12.204Z,95127.69
2023-05-15T15:35:38.824Z,95130.88
2023-05-15T15:38:05.760Z,95143.91
2023-05-15T15:40:32.388Z,95133.72
2023-05-15T15:42:59.031Z,95141.44
2023-05-15T15:45:25.854Z,95138.19
2023-05-15T15:47:52.533Z,95138.38
2023-05-15T15:50:19.181Z,95143.81
2023-05-15T15:52:46.894Z,95144.22
2023-05-15T15:55:13.533Z,95141.34
2023-05-15T15:57:40.135Z,95151.00
2023-05-15T16:00:08.449Z,95143.31
2023-05-15T16:02:35.416Z,95152.03
2023-05-15T16:05:02.559Z,95151.72
2023-05-15T16:07:29.730Z,95158.75
2023-05-15T16:10:10.795Z,95148.06
2023-05-15T16:12:40.714Z,95163.09
2023-05-15T16:17:39.276Z,95157.78
2023-05-15T16:20:06.392Z,95159.63
2023-05-15T16:22:32.984Z,95145.97
2023-05-15T16:24:59.639Z,95145.47
2023-05-15T16:27:26.540Z,95146.19
2023-05-15T16:29:53.753Z,95139.75
2023-05-15T16:32:21.469Z,95158.22
2023-05-15T16:34:48.147Z,95166.03
2023-05-15T16:37:14.753Z,95158.16
2023-05-15T16:39:41.334Z,95154.38
2023-05-15T16:42:09.556Z,95160.69
2023-05-15T16:44:36.287Z,95146.44
2023-05-15T16:47:03.303Z,95157.59
2023-05-15T16:49:29.874Z,95152.16
2023-05-15T16:51:56.466Z,95162.34
2023-05-15T16:54:23.058Z,95154.72
2023-05-15T16:56:49.768Z,95171.03
2023-05-15T16:59:16.516Z,95169.13
2023-05-15T17:01:43.481Z,95172.66
2023-05-15T17:04:10.179Z,95168.44
2023-05-15T17:06:36.906Z,95160.44
2023-05-15T17:09:03.550Z,95155.69
2023-05-15T17:11:30.114Z,95169.31
2023-05-15T17:13:56.691Z,95165.63
2023-05-15T17:16:23.321Z,95157.91
2023-05-15T17:18:50.100Z,95166.44
2023-05-15T17:21:16.812Z,95157.63
2023-05-15T17:23:43.394Z,95166.88
2023-05-15T17:26:09.962Z,95154.84
2023-05-15T17:28:37.984Z,95157.13
2023-05-15T17:31:10.456Z,95162.34
2023-05-15T17:33:37.091Z,95159.81
2023-05-15T17:36:04.019Z,95172.06
2023-05-15T17:38:30.646Z,95168.16
2023-05-15T17:40:57.236Z,95175.81
2023-05-15T17:43:23.879Z,95169.47
2023-05-15T17:45:50.904Z,95178.72
2023-05-15T17:48:17.528Z,95171.91
2023-05-15T17:50:44.389Z,95173.47
2023-05-15T17:53:10.965Z,95174.25
2023-05-15T17:55:37.741Z,95167.16
2023-05-15T17:58:04.395Z,95177.94
2023-05-15T18:00:31.064Z,95177.53
2023-05-15T18:02:57.824Z,95178.59
2023-05-15T18:05:24.845Z,95176.44
2023-05-15T18:07:51.648Z,95167.75
2023-05-15T18:10:18.268Z,95169.47
2023-05-15T18:12:44.983Z,95174.28
2023-05-15T18:15:11.891Z,95180.13
2023-05-15T18:17:38.492Z,95194.22
2023-05-15T18:20:05.841Z,95202.50
2023-05-15T18:22:32.573Z,95198.63
2023-05-15T18:24:59.757Z,95207.13
2023-05-15T18:27:26.364Z,95213.88
2023-05-15T18:29:53.005Z,95212.78
2023-05-15T18:32:19.591Z,95220.28
2023-05-15T18:34:47.229Z,95225.84
2023-05-15T18:37:14.020Z,95217.63
2023-05-15T18:39:42.150Z,95220.03
2023-05-15T18:42:08.746Z,95221.44
2023-05-15T18:44:36.105Z,95216.09
2023-05-15T18:47:03.419Z,95220.84
2023-05-15T18:49:30.215Z,95213.22
2023-05-15T18:51:58.045Z,95215.72
2023-05-15T18:54:25.069Z,95210.16
2023-05-15T18:56:51.755Z,95237.28
2023-05-15T18:59:18.313Z,95234.41
2023-05-15T19:01:46.522Z,95227.06
2023-05-15T19:04:13.433Z,95222.47
2023-05-15T19:06:42.472Z,95218.34
2023-05-15T19:09:09.922Z,95231.66
2023-05-15T19:11:36.505Z,95234.66
2023-05-15T19:14:03.177Z,95230.63
2023-05-15T19:16:29.799Z,95230.31
2023-05-15T19:18:56.532Z,95245.84
2023-05-15T19:21:23.203Z,95242.34
2023-05-15T19:23:51.128Z,95239.91
2023-05-15T19:26:17.722Z,95250.78
2023-05-15T19:28:44.453Z,95247.59
2023-05-15T19:31:20.348Z,95241.63
2023-05-15T19:33:54.441Z,95233.94
2023-05-15T19:36:21.063Z,95241.63
2023-05-15T19:38:48.110Z,95232.09
2023-05-15T19:41:14.793Z,95249.34
2023-05-15T19:43:41.609Z,95250.94
2023-05-15T19:46:08.362Z,95251.56
2023-05-15T19:48:34.967Z,95245.50
2023-05-15T19:51:01.576Z,95247.88
2023-05-15T19:53:28.269Z,95247.69
2023-05-15T19:55:55.133Z,95238.13
2023-05-15T19:58:22.374Z,95241.34
2023-05-15T20:00:50.065Z,95241.28
2023-05-15T20:03:16.844Z,95245.91
2023-05-15T20:05:43.506Z,95242.44
2023-05-15T20:08:10.218Z,95245.19
2023-05-15T20:10:37.051Z,95243.53
2023-05-15T20:13:04.550Z,95240.28
2023-05-15T20:15:31.792Z,95235.84
2023-05-15T20:17:58.537Z,95246.19
2023-05-15T20:20:25.687Z,95239.34
2023-05-15T20:22:52.573Z,95245.09
2023-05-15T20:25:19.259Z,95228.97
2023-05-15T20:27:45.869Z,95243.81
2023-05-15T20:30:12.517Z,95239.56
2023-05-15T20:32:39.210Z,95240.63
2023-05-15T20:35:06.993Z,95233.75
2023-05-15T20:37:34.581Z,95241.16
2023-05-15T20:40:01.269Z,95236.13
2023-05-15T20:42:28.417Z,95238.72
2023-05-15T20:44:55.101Z,95226.31
2023-05-15T20:47:22.015Z,95234.31
2023-05-15T20:49:48.729Z,95242.78
2023-05-15T20:52:15.465Z,95245.44
2023-05-15T20:54:42.096Z,95242.25
2023-05-15T20:57:08.759Z,95238.28
2023-05-15T20:59:35.724Z,95234.31
2023-05-15T21:02:02.469Z,95238.53
2023-05-15T21:04:31.120Z,95235.03
2023-05-15T21:06:57.848Z,95232.63
2023-05-15T21:09:27.242Z,95233.75
2023-05-15T21:11:53.869Z,95242.53
2023-05-15T21:14:20.614Z,95246.22
2023-05-15T21:16:47.266Z,95237.41
2023-05-15T21:19:14.075Z,95238.03
2023-05-15T21:21:40.830Z,95246.59
2023-05-15T21:24:08.054Z,95254.78
2023-05-15T21:26:34.678Z,95252.69
2023-05-15T21:29:04.349Z,95250.34
2023-05-15T21:31:31.056Z,95256.63
2023-05-15T21:33:57.757Z,95257.44
2023-05-15T21:36:24.445Z,95254.28
2023-05-15T21:38:51.054Z,95255.91
2023-05-15T21:41:17.786Z,95260.97
2023-05-15T21:43:44.499Z,95260.69
2023-05-15T21:46:11.214Z,95259.69
2023-05-15T21:48:37.953Z,95262.34
2023-05-15T21:51:04.603Z,95259.69
2023-05-15T21:53:31.235Z,95254.09
2023-05-15T21:56:01.640Z,95257.03
2023-05-15T21:58:28.446Z,95262.88
2023-05-15T22:00:55.333Z,95268.59
2023-05-15T22:03:22.473Z,95268.13
2023-05-15T22:05:50.316Z,95260.22
2023-05-15T22:08:17.133Z,95276.69
2023-05-15T22:10:43.790Z,95272.22
2023-05-15T22:13:10.588Z,95279.91
2023-05-15T22:15:37.704Z,95281.38
2023-05-15T22:18:05.789Z,95284.91
2023-05-15T22:20:32.974Z,95280.97
2023-05-15T22:22:59.736Z,95288.22
2023-05-15T22:25:26.435Z,95288.91
2023-05-15T22:27:53.113Z,95292.44
2023-05-15T22:30:19.973Z,95296.94
2023-05-15T22:32:46.611Z,95295.09
2023-05-15T22:35:13.525Z,95291.34
2023-05-15T22:37:42.186Z,95287.94
2023-05-15T22:40:11.980Z,95297.19
2023-05-15T22:42:38.618Z,95293.78
2023-05-15T22:45:06.164Z,95293.53
2023-05-15T22:47:33.708Z,95298.59
2023-05-15T22:50:00.417Z,95285.81
2023-05-15T22:52:27.213Z,95292.72
2023-05-15T22:54:53.846Z,95290.63
2023-05-15T22:57:20.649Z,95281.84
2023-05-15T22:59:47.319Z,95280.09
2023-05-15T23:02:13.918Z,95272.66
2023-05-15T23:04:40.654Z,95273.16
2023-05-15T23:07:07.289Z,95279.25
2023-05-15T23:09:33.946Z,95279.44
2023-05-15T23:12:00.921Z,95270.25
2023-05-15T23:14:27.535Z,95277.63
2023-05-15T23:16:54.323Z,95265.44
2023-05-15T23:19:20.976Z,95269.19
2023-05-15T23:21:47.884Z,95264.16
2023-05-15T23:24:14.606Z,95270.78
2023-05-15T23:26:41.196Z,95262.41
2023-05-15T23:29:07.808Z,95256.03
2023-05-15T23:31:34.638Z,95253.34
2023-05-15T23:34:01.341Z,95257.84
2023-05-15T23:36:28.001Z,95251.13
2023-05-15T23:38:54.585Z,95238.75
2023-05-15T23:41:22.902Z,95244.22
2023-05-15T23:43:52.555Z,95246.69
2023-05-15T23:46:19.316Z,95249.59
2023-05-15T23:48:46.073Z,95244.56
2023-05-15T23:51:12.758Z,95246.72
2023-05-15T23:53:39.345Z,95241.16
2023-05-15T23:56:06.725Z,95238.19
2023-05-15T23:58:33.706Z,95239.78
